»·PEaware :: N901TX MMCU-T82

N901TX :: MMCU-T82

FLIGHT INFORMATION

Flight Status: Arrived
Operator: Privately registered:
United States
More flights under this callsign
Pilot: Andrew J. (13363)
Aircraft: SOCATA TBM-900
(TBM9)
More flights by this aircraft type
Origin: MMCU Gen Div P A Roberto Fierro
Mexico
Destination: T82 Gillespie Co
United States
More flights between these airports :: More routes between these airports
Route: MRTHN
File this flight plan on PilotEdge
Remarks:
Altitude:
(Current/Filed)
31,000ft
Speed:
(Current/Filed)
320kts
Departed: 12-Dec-18 07:21 PM
Arrived: 12-Dec-18 08:41 PM
Distance/Time
Traveled:
380nm/1:20
Distance/Time
To Go:
Arrived

Flight Plot

Page will automatically refresh every two minutes.

Flight plan parsing failed; only flown route is shown


Map Options




Map Legend


Flown Route
Filed Route
Departure Airport
Arrival Airport
Navaid (VOR, NDB)
Fix

Horizontal Profiles

Position Reports

Time Latitude Longitude Heading Altitude Ground
Speed
12-Dec-18 19:13 28.700552 -105.969009 310 4426ft 0kts
12-Dec-18 19:14 28.700552 -105.969009 310 4426ft 0kts
12-Dec-18 19:15 28.700552 -105.969009 310 4426ft 0kts
12-Dec-18 19:16 28.700552 -105.969010 310 4426ft 0kts
12-Dec-18 19:17 28.700552 -105.969010 310 4426ft 0kts
12-Dec-18 19:18 28.700552 -105.969010 310 4426ft 0kts
12-Dec-18 19:19 28.700375 -105.966044 51 4424ft 3kts
12-Dec-18 19:20 28.710391 -105.949687 59 4707ft 142kts
12-Dec-18 19:21 28.727166 -105.905420 56 6661ft 151kts
12-Dec-18 19:22 28.747772 -105.858363 60 8278ft 174kts
12-Dec-18 19:23 28.769650 -105.807683 58 9950ft 182kts
12-Dec-18 19:24 28.792278 -105.755406 59 11533ft 186kts
12-Dec-18 19:25 28.815328 -105.701981 59 12868ft 192kts
12-Dec-18 19:26 28.839231 -105.646498 59 14155ft 198kts
12-Dec-18 19:27 28.863773 -105.589557 58 15809ft 202kts
12-Dec-18 19:28 28.888858 -105.531113 58 17864ft 206kts
12-Dec-18 19:29 28.914935 -105.470452 58 19638ft 219kts
12-Dec-18 19:30 28.941256 -105.408496 53 21765ft 207kts
12-Dec-18 19:31 28.966613 -105.349710 52 23493ft 212kts
12-Dec-18 19:32 28.992827 -105.288523 53 24942ft 220kts
12-Dec-18 19:33 29.019895 -105.225081 53 26275ft 229kts
12-Dec-18 19:34 29.048230 -105.158531 53 27471ft 235kts
12-Dec-18 19:35 29.077103 -105.090651 53 28558ft 241kts
12-Dec-18 19:36 29.106439 -105.021529 53 29524ft 246kts
12-Dec-18 19:37 29.136716 -104.950085 53 30395ft 253kts
12-Dec-18 19:38 29.167818 -104.876552 53 31066ft 264kts
12-Dec-18 19:39 29.183435 -104.788304 81 31091ft 307kts
12-Dec-18 19:40 29.187965 -104.688219 81 31038ft 324kts
12-Dec-18 19:41 29.192980 -104.584078 81 31035ft 331kts
12-Dec-18 19:42 29.198530 -104.478087 81 31035ft 335kts
12-Dec-18 19:43 29.204303 -104.371689 81 31035ft 336kts
12-Dec-18 19:44 29.210225 -104.265504 81 31025ft 336kts
12-Dec-18 19:45 29.215713 -104.159612 80 31186ft 328kts
12-Dec-18 19:46 29.222128 -104.057023 74 31047ft 317kts
12-Dec-18 19:47 29.264029 -103.973078 46 30997ft 311kts
12-Dec-18 19:48 29.314584 -103.892356 46 31044ft 314kts
12-Dec-18 19:49 29.365669 -103.810697 46 31022ft 317kts
12-Dec-18 19:50 29.416725 -103.728913 46 31056ft 316kts
12-Dec-18 19:51 29.467950 -103.646702 46 31030ft 318kts
12-Dec-18 19:52 29.519217 -103.564250 46 31095ft 318kts
12-Dec-18 19:53 29.570838 -103.481074 46 31031ft 319kts
12-Dec-18 19:54 29.622162 -103.398214 46 31036ft 320kts
12-Dec-18 19:55 29.673238 -103.315573 47 31034ft 320kts
12-Dec-18 19:56 29.724807 -103.231970 47 31019ft 320kts
12-Dec-18 19:57 29.776148 -103.148579 47 31008ft 321kts
12-Dec-18 19:58 29.827889 -103.064347 48 30974ft 323kts
12-Dec-18 19:59 29.879745 -102.979761 48 30907ft 328kts
12-Dec-18 20:01 29.932022 -102.894302 48 30927ft 327kts
12-Dec-18 20:02 29.984313 -102.808656 48 30928ft 328kts
12-Dec-18 20:03 30.036501 -102.722976 49 30927ft 327kts
12-Dec-18 20:04 30.082996 -102.633150 72 30923ft 335kts
12-Dec-18 20:05 30.089963 -102.525337 85 30931ft 337kts
12-Dec-18 20:06 30.095945 -102.417241 85 30933ft 339kts
12-Dec-18 20:07 30.101898 -102.309145 86 30922ft 340kts
12-Dec-18 20:08 30.107774 -102.200422 86 30924ft 339kts
12-Dec-18 20:09 30.113278 -102.097271 86 30934ft 339kts
12-Dec-18 20:10 30.119153 -101.985096 86 30971ft 339kts
12-Dec-18 20:11 30.124854 -101.874816 86 30945ft 340kts
12-Dec-18 20:12 30.130393 -101.765726 86 30965ft 340kts
12-Dec-18 20:13 30.135858 -101.656671 87 30965ft 341kts
12-Dec-18 20:14 30.141216 -101.547534 87 30964ft 342kts
12-Dec-18 20:15 30.146519 -101.437925 87 30969ft 342kts
12-Dec-18 20:16 30.151687 -101.329181 88 30941ft 343kts
12-Dec-18 20:17 30.156775 -101.219959 89 30939ft 342kts
12-Dec-18 20:18 30.161797 -101.110458 89 30941ft 342kts
12-Dec-18 20:19 30.166736 -101.000628 90 30965ft 343kts
12-Dec-18 20:20 30.171605 -100.890327 90 30958ft 345kts
12-Dec-18 20:20 30.175607 -100.798128 91 30971ft 346kts
12-Dec-18 20:22 30.181122 -100.668425 91 30974ft 348kts
12-Dec-18 20:23 30.185808 -100.555035 92 30531ft 363kts
12-Dec-18 20:23 30.189845 -100.455903 91 29671ft 381kts
12-Dec-18 20:24 30.194696 -100.334571 91 28236ft 397kts
12-Dec-18 20:25 30.199466 -100.212181 91 26607ft 402kts
12-Dec-18 20:26 30.204302 -100.085155 90 24882ft 388kts
12-Dec-18 20:27 30.213556 -99.959918 84 23197ft 392kts
12-Dec-18 20:28 30.226600 -99.836646 84 21495ft 383kts
12-Dec-18 20:29 30.239361 -99.716474 84 19816ft 376kts
12-Dec-18 20:30 30.252159 -99.598980 84 18132ft 357kts
12-Dec-18 20:31 30.264732 -99.488856 81 16419ft 340kts
12-Dec-18 20:32 30.284274 -99.381753 79 14492ft 338kts
12-Dec-18 20:33 30.303674 -99.287832 74 12931ft 322kts
12-Dec-18 20:34 30.330997 -99.191606 69 11137ft 312kts
12-Dec-18 20:35 30.362394 -99.099066 69 8864ft 311kts
12-Dec-18 20:36 30.390219 -99.017647 87 6949ft 251kts
12-Dec-18 20:37 30.346254 -98.976163 164 4570ft 208kts
12-Dec-18 20:38 30.296465 -98.949435 149 2724ft 191kts
12-Dec-18 20:39 30.257902 -98.920125 150 1944ft 109kts
12-Dec-18 20:40 30.242163 -98.908175 61 1677ft 7kts
12-Dec-18 20:41 30.243729 -98.908652 325 1680ft 8kts
12-Dec-18 20:42 30.244321 -98.908623 133 1680ft 4kts
12-Dec-18 20:43 30.244347 -98.908355 55 1680ft 0kts
12-Dec-18 20:44 30.244347 -98.908355 55 1680ft 0kts
12-Dec-18 20:45 30.244347 -98.908355 55 1680ft 0kts
12-Dec-18 20:46 30.244347 -98.908355 55 1680ft 0kts
12-Dec-18 20:47 30.244347 -98.908355 55 1680ft 0kts
12-Dec-18 20:48 30.244347 -98.908355 55 1680ft 0kts
12-Dec-18 20:49 30.244347 -98.908355 55 1680ft 0kts
12-Dec-18 20:50 30.244347 -98.908355 55 1680ft 0kts
12-Dec-18 20:51 30.244347 -98.908355 55 1680ft 0kts
12-Dec-18 20:52 30.244347 -98.908355 55 1680ft 0kts
12-Dec-18 20:53 30.244347 -98.908355 55 1680ft 0kts
12-Dec-18 20:54 30.244347 -98.908355 55 1680ft 0kts

Navigation Log

Ident Type
Flight plan parsing failed, navigation log unavailable